Time;durP1;ratioP1;P1;durP2;ratioP2;P2;SDS_P1;SDS_P2;PMS_P1;PMS_P2;Temp;Humidity;BMP_temperature;BMP_pressure;BME280_temperature;BME280_humidity;BME280_pressure;Samples;Min_cycle;Max_cycle;Signal;HPM_P1;HPM_P2
2022/07/18 00:01:40;;;;;;;3.20;1.52;;;;;;;13.36;65.36;101310.49;3584616;77;21245;-77
2022/07/18 00:06:32;;;;;;;2.90;1.82;;;;;;;13.31;65.48;101306.49;3582164;77;20906;-77
2022/07/18 00:11:24;;;;;;;4.70;2.50;;;;;;;13.27;65.54;101307.28;3547900;77;21574;-77
2022/07/18 00:16:17;;;;;;;2.83;1.60;;;;;;;13.23;65.77;101301.53;3540881;77;20935;-77
2022/07/18 00:21:10;;;;;;;3.72;1.70;;;;;;;13.14;65.77;101297.48;3572137;77;21350;-78
2022/07/18 00:26:02;;;;;;;2.85;2.00;;;;;;;13.04;65.91;101296.88;3514910;77;21076;-78
2022/07/18 00:30:55;;;;;;;3.70;2.15;;;;;;;12.97;66.13;101300.70;3584964;77;21056;-77
2022/07/18 00:35:47;;;;;;;3.05;1.82;;;;;;;12.91;66.12;101290.18;3591630;77;20966;-77
2022/07/18 00:40:40;;;;;;;2.85;1.75;;;;;;;12.83;66.40;101294.37;3614000;77;20904;-77
2022/07/18 00:45:32;;;;;;;4.25;1.95;;;;;;;12.77;66.46;101295.59;3560386;78;22064;-77
2022/07/18 00:50:24;;;;;;;2.02;1.82;;;;;;;12.76;66.78;101297.73;3594121;77;20955;-77
2022/07/18 00:55:17;;;;;;;3.40;1.82;;;;;;;12.66;66.82;101297.12;3567005;77;20965;-77
2022/07/18 01:05:24;;;;;;;2.62;2.10;;;;;;;12.66;67.02;101295.81;3578232;77;20950;-77
2022/07/18 01:10:18;;;;;;;2.75;2.02;;;;;;;12.66;67.17;101304.54;3582532;77;21436;-77
2022/07/18 01:15:12;;;;;;;2.05;1.85;;;;;;;12.62;67.27;101303.14;3568714;77;20962;-77
2022/07/18 01:20:06;;;;;;;3.27;1.65;;;;;;;12.62;67.30;101300.53;3476712;80;20953;-77
2022/07/18 01:24:59;;;;;;;2.70;2.00;;;;;;;12.55;67.36;101295.19;3599599;77;20934;-77
2022/07/18 01:29:53;;;;;;;3.02;2.02;;;;;;;12.50;67.38;101294.25;3537074;77;21130;-77
2022/07/18 01:34:47;;;;;;;2.33;1.90;;;;;;;12.54;67.66;101300.41;3596530;77;21034;-77
2022/07/18 01:39:39;;;;;;;3.90;2.33;;;;;;;12.48;67.62;101297.66;3521360;78;20969;-77
2022/07/18 01:44:33;;;;;;;3.33;1.90;;;;;;;12.46;67.84;101301.55;3591877;77;22177;-77
2022/07/18 01:49:27;;;;;;;2.98;2.10;;;;;;;12.45;67.85;101306.33;3603657;77;20997;-77
2022/07/18 01:54:25;;;;;;;2.10;1.90;;;;;;;12.40;67.98;101311.44;3670109;76;21017;-77
2022/07/18 01:59:18;;;;;;;4.85;3.12;;;;;;;12.43;68.17;101309.33;3592252;77;21491;-77
2022/07/18 02:04:10;;;;;;;3.42;2.15;;;;;;;12.47;68.28;101313.75;3650013;77;21542;-77
2022/07/18 02:09:04;;;;;;;5.17;2.50;;;;;;;12.46;68.25;101321.11;3604627;77;21530;-77
2022/07/18 02:13:56;;;;;;;3.58;2.72;;;;;;;12.45;68.25;101331.50;3578977;77;21467;-77
2022/07/18 02:18:48;;;;;;;3.70;3.17;;;;;;;12.34;68.16;101319.56;3588277;77;21484;-77
2022/07/18 02:23:43;;;;;;;4.97;2.85;;;;;;;12.30;68.37;101325.58;3523919;77;21063;-77
2022/07/18 02:28:35;;;;;;;5.20;2.87;;;;;;;12.28;68.52;101325.97;3630510;77;21010;-77
2022/07/18 02:33:27;;;;;;;4.05;2.75;;;;;;;12.28;68.41;101327.28;3583749;77;20900;-77
2022/07/18 02:38:20;;;;;;;4.15;2.83;;;;;;;12.27;68.39;101330.72;3639889;77;20962;-77
2022/07/18 02:43:12;;;;;;;2.95;2.22;;;;;;;12.24;68.37;101325.47;3608570;77;20957;-77
2022/07/18 02:48:04;;;;;;;3.55;2.15;;;;;;;12.18;68.32;101323.19;3541432;77;21123;-77
2022/07/18 02:52:56;;;;;;;3.35;2.15;;;;;;;12.08;68.37;101325.15;3576934;77;21508;-77
2022/07/18 02:57:50;;;;;;;2.85;1.90;;;;;;;12.00;68.48;101320.19;3561170;77;20868;-77
2022/07/18 03:02:44;;;;;;;4.65;2.25;;;;;;;11.92;68.73;101325.25;3585672;76;21528;-77
2022/07/18 03:07:40;;;;;;;3.87;2.20;;;;;;;12.02;69.08;101327.64;3583524;76;21030;-77
2022/07/18 03:12:32;;;;;;;2.72;2.10;;;;;;;12.03;68.95;101318.09;3624010;77;21381;-77
2022/07/18 03:17:24;;;;;;;5.28;2.67;;;;;;;12.05;69.07;101333.33;3521756;77;20969;-77
2022/07/18 03:22:17;;;;;;;4.17;2.27;;;;;;;12.04;69.09;101335.06;3602702;76;20969;-77
2022/07/18 03:27:09;;;;;;;3.77;2.52;;;;;;;12.10;69.22;101343.43;3536636;77;21016;-77
2022/07/18 03:32:01;;;;;;;5.53;2.60;;;;;;;12.16;69.23;101339.23;3633629;77;20945;-77
2022/07/18 03:36:53;;;;;;;4.72;2.37;;;;;;;12.24;69.23;101341.11;3569929;77;21466;-77
2022/07/18 03:41:45;;;;;;;3.95;2.47;;;;;;;12.43;69.31;101352.77;3555417;77;20921;-77
2022/07/18 03:46:37;;;;;;;6.95;3.00;;;;;;;12.55;69.09;101350.40;3579523;77;20949;-77
2022/07/18 03:51:30;;;;;;;4.08;2.65;;;;;;;12.68;69.28;101350.20;3602041;77;20935;-77
2022/07/18 03:56:22;;;;;;;5.85;2.67;;;;;;;12.82;69.30;101348.71;3623914;77;20975;-77
2022/07/18 04:01:14;;;;;;;3.45;2.47;;;;;;;12.97;69.25;101343.77;3624386;77;20929;-77
2022/07/18 04:06:06;;;;;;;4.58;2.60;;;;;;;13.17;69.06;101341.92;3518361;77;21476;-77
2022/07/18 04:10:58;;;;;;;4.20;3.02;;;;;;;13.38;69.09;101340.52;3526482;78;21550;-77
2022/07/18 04:15:50;;;;;;;5.55;2.87;;;;;;;13.54;69.09;101347.77;3601637;77;20912;-77
2022/07/18 04:20:42;;;;;;;4.92;3.10;;;;;;;13.81;69.06;101347.71;3519995;77;21445;-77
2022/07/18 04:25:38;;;;;;;5.42;3.45;;;;;;;14.01;69.01;101354.51;3580585;77;21572;-77
2022/07/18 04:30:32;;;;;;;3.83;3.05;;;;;;;14.21;68.75;101349.08;3586397;77;21617;-77
2022/07/18 04:35:24;;;;;;;8.25;3.60;;;;;;;14.35;68.50;101354.48;3650277;76;20993;-77
2022/07/18 04:40:18;;;;;;;4.60;3.47;;;;;;;14.49;68.25;101338.51;3587769;77;20988;-77
2022/07/18 04:45:10;;;;;;;5.08;2.83;;;;;;;14.59;67.81;101346.48;3581966;77;20965;-76
2022/07/18 04:50:05;;;;;;;5.15;3.58;;;;;;;14.62;67.56;101341.30;3537447;78;21844;-76
2022/07/18 04:54:57;;;;;;;6.50;3.90;;;;;;;14.72;67.75;101337.91;3534805;78;20955;-76
2022/07/18 04:59:49;;;;;;;6.45;3.10;;;;;;;14.81;67.20;101332.77;3515930;78;21470;-76
2022/07/18 05:04:41;;;;;;;6.53;3.00;;;;;;;14.90;67.47;101337.62;3611599;76;21006;-76
2022/07/18 05:09:34;;;;;;;4.75;3.20;;;;;;;15.04;67.04;101339.92;3571610;77;20974;-76
2022/07/18 05:14:26;;;;;;;4.90;2.90;;;;;;;15.21;66.72;101342.25;3569182;77;21837;-76
2022/07/18 05:19:18;;;;;;;6.62;3.08;;;;;;;15.36;66.39;101345.86;3632701;77;20896;-76
2022/07/18 05:24:10;;;;;;;3.08;2.40;;;;;;;15.59;66.35;101349.50;3590628;77;20947;-76
2022/07/18 05:29:04;;;;;;;3.37;2.37;;;;;;;15.82;66.02;101346.19;3527128;78;20918;-76
2022/07/18 05:33:56;;;;;;;6.40;2.90;;;;;;;15.95;65.11;101344.08;3559473;78;20998;-76
2022/07/18 05:38:48;;;;;;;4.90;2.27;;;;;;;16.08;65.07;101345.42;3448294;79;20931;-76
2022/07/18 05:43:41;;;;;;;5.35;2.60;;;;;;;16.29;64.80;101352.06;3507298;77;21506;-76
2022/07/18 05:48:33;;;;;;;3.50;2.20;;;;;;;16.46;64.05;101342.08;3551475;78;21078;-76
2022/07/18 05:53:25;;;;;;;4.78;2.37;;;;;;;16.70;63.84;101346.05;3545436;78;21314;-76
2022/07/18 05:58:17;;;;;;;4.08;2.22;;;;;;;16.90;63.19;101346.13;3612712;78;20990;-76
2022/07/18 06:03:09;;;;;;;4.30;2.42;;;;;;;17.12;62.45;101347.00;3598020;77;21029;-76
2022/07/18 06:08:01;;;;;;;4.37;2.33;;;;;;;17.18;62.68;101350.52;3543808;77;21306;-77
2022/07/18 06:12:54;;;;;;;4.08;1.70;;;;;;;17.51;62.16;101347.85;3503641;79;20997;-76
2022/07/18 06:17:47;;;;;;;4.17;2.33;;;;;;;17.98;61.96;101354.34;3524477;78;20935;-76
2022/07/18 06:22:39;;;;;;;4.78;2.10;;;;;;;18.15;60.82;101351.63;3511329;77;20915;-76
2022/07/18 06:27:32;;;;;;;4.28;2.02;;;;;;;18.47;60.46;101351.47;3513859;78;21016;-76
2022/07/18 06:32:24;;;;;;;2.85;2.20;;;;;;;18.97;59.60;101339.75;3514517;79;20927;-77
2022/07/18 06:37:16;;;;;;;6.22;2.45;;;;;;;19.49;58.85;101338.86;3567208;77;21007;-77
2022/07/18 06:42:08;;;;;;;4.10;2.02;;;;;;;21.23;55.56;101340.08;3563018;77;20997;-77
2022/07/18 06:47:00;;;;;;;4.22;2.08;;;;;;;21.42;54.76;101343.25;3553941;77;21016;-76
2022/07/18 06:51:52;;;;;;;2.55;1.50;;;;;;;21.17;55.23;101335.34;3612083;77;20990;-76
2022/07/18 06:56:44;;;;;;;5.20;1.75;;;;;;;20.97;55.67;101330.39;3557297;77;22255;-76
2022/07/18 07:01:37;;;;;;;3.92;1.75;;;;;;;20.74;55.02;101329.84;3613731;77;21024;-76
2022/07/18 07:06:29;;;;;;;6.12;2.02;;;;;;;20.64;55.69;101328.69;3582518;77;20953;-76
2022/07/18 07:11:21;;;;;;;4.67;2.50;;;;;;;20.65;54.88;101333.09;3572591;77;20988;-76
2022/07/18 07:16:14;;;;;;;9.30;2.85;;;;;;;20.68;55.20;101337.01;3597799;77;20915;-76
2022/07/18 07:21:08;;;;;;;3.87;1.90;;;;;;;20.32;54.94;101331.33;3535705;77;22112;-76
2022/07/18 07:26:00;;;;;;;3.87;2.72;;;;;;;20.21;54.93;101331.90;3571101;77;21319;-77
2022/07/18 07:30:52;;;;;;;4.67;2.17;;;;;;;20.69;54.57;101338.31;3628491;77;20955;-76
2022/07/18 07:35:46;;;;;;;2.92;1.85;;;;;;;21.07;54.33;101336.82;3551770;77;38816;-75
2022/07/18 07:40:38;;;;;;;8.53;2.58;;;;;;;22.07;52.97;101345.56;3511575;78;21424;-75
2022/07/18 07:45:30;;;;;;;3.67;1.62;;;;;;;22.35;51.76;101337.03;3507465;78;21041;-75
2022/07/18 07:50:22;;;;;;;5.35;2.25;;;;;;;23.27;50.56;101335.75;3525344;78;20904;-76
2022/07/18 07:55:14;;;;;;;3.67;2.35;;;;;;;23.08;50.67;101336.70;3440781;78;21049;-76
2022/07/18 08:00:09;;;;;;;4.70;1.90;;;;;;;22.40;51.15;101343.11;3491873;78;22344;-75
2022/07/18 08:05:04;;;;;;;5.72;1.85;;;;;;;22.24;51.19;101345.65;3510902;78;20954;-75
2022/07/18 08:09:57;;;;;;;5.53;2.00;;;;;;;22.74;50.75;101341.01;3567453;77;20954;-76
2022/07/18 08:14:51;;;;;;;3.60;2.15;;;;;;;23.55;49.34;101339.41;3557104;79;20983;-76
2022/07/18 08:19:43;;;;;;;3.10;2.27;;;;;;;23.58;49.66;101335.82;3489134;78;20959;-76
2022/07/18 08:24:35;;;;;;;4.40;2.70;;;;;;;24.84;46.56;101332.55;3488404;78;20939;-75
2022/07/18 08:29:27;;;;;;;6.08;2.77;;;;;;;27.47;44.13;101337.72;3561301;79;21037;-76
2022/07/18 08:34:20;;;;;;;4.42;2.40;;;;;;;30.16;41.48;101332.49;3532257;77;21483;-75
2022/07/18 08:39:12;;;;;;;3.95;2.33;;;;;;;28.96;42.47;101324.07;3556007;79;21607;-76
2022/07/18 08:44:07;;;;;;;3.15;2.22;;;;;;;28.67;41.95;101326.84;3483019;78;20970;-75
2022/07/18 08:48:59;;;;;;;3.95;2.20;;;;;;;27.46;42.36;101326.66;3510149;78;27895;-76
2022/07/18 08:53:55;;;;;;;3.65;2.10;;;;;;;26.48;43.57;101320.91;3482856;79;21015;-75
2022/07/18 08:58:47;;;;;;;3.08;1.90;;;;;;;25.60;43.90;101326.88;3355889;80;26592;-75
2022/07/18 09:03:39;;;;;;;6.40;2.15;;;;;;;24.87;45.09;101328.46;3474746;80;20948;-74
2022/07/18 09:08:31;;;;;;;3.02;2.17;;;;;;;25.02;45.78;101325.30;3465940;80;20963;-74
2022/07/18 09:13:35;;;;;;;6.30;2.22;;;;;;;24.54;45.63;101329.98;3525998;78;21518;-74
2022/07/18 09:18:34;;;;;;;4.00;1.98;;;;;;;24.25;46.77;101322.86;3520181;80;21038;-75
2022/07/18 09:23:33;;;;;;;5.20;2.20;;;;;;;24.66;46.26;101316.27;3497118;79;21456;-75
2022/07/18 09:28:27;;;;;;;4.20;1.85;;;;;;;25.11;45.31;101311.69;3480190;79;21010;-76
2022/07/18 09:33:24;;;;;;;2.25;1.70;;;;;;;25.54;44.01;101303.12;3464391;80;21347;-77
2022/07/18 09:38:21;;;;;;;2.98;2.08;;;;;;;25.52;44.70;101310.30;3579901;78;20989;-76
2022/07/18 09:43:18;;;;;;;2.02;1.80;;;;;;;25.33;44.69;101308.30;3591720;78;20928;-76
2022/07/18 09:48:14;;;;;;;2.47;1.75;;;;;;;26.31;44.13;101301.58;3482648;79;20947;-76
2022/07/18 09:53:27;;;;;;;3.77;2.02;;;;;;;28.42;41.57;101299.06;3525235;79;20944;-76
2022/07/18 09:58:26;;;;;;;4.42;2.35;;;;;;;29.38;40.11;101295.17;3523610;79;20947;-76
2022/07/18 10:03:20;;;;;;;2.92;2.00;;;;;;;30.45;38.31;101292.46;3495547;79;20955;-76
2022/07/18 10:08:16;;;;;;;3.72;2.37;;;;;;;30.86;38.07;101295.02;3503421;79;20904;-75
2022/07/18 10:13:09;;;;;;;3.65;2.10;;;;;;;30.85;36.90;101298.66;3503633;79;20908;-73
2022/07/18 10:18:04;;;;;;;3.33;1.90;;;;;;;31.24;36.73;101299.94;3450661;79;21194;-73
2022/07/18 10:23:08;;;;;;;5.05;2.45;;;;;;;30.46;36.57;101304.05;3530075;79;21048;-72
2022/07/18 10:28:08;;;;;;;3.40;2.35;;;;;;;32.45;35.58;101301.70;3570384;79;20947;-73
2022/07/18 10:33:01;;;;;;;3.77;2.02;;;;;;;30.59;35.81;101301.91;3586791;78;21438;-73
2022/07/18 10:38:02;;;;;;;2.47;1.85;;;;;;;29.18;37.86;101304.27;3554772;78;20999;-73
2022/07/18 10:43:32;;;;;;;3.00;1.62;;;;;;;29.56;37.07;101307.58;3582609;77;21500;-75
2022/07/18 10:48:36;;;;;;;6.15;2.05;;;;;;;29.61;37.12;101302.84;3617819;78;20986;-73
2022/07/18 10:53:58;;;;;;;2.33;1.50;;;;;;;28.33;38.68;101297.70;3641421;76;21051;-74
2022/07/18 10:58:51;;;;;;;3.77;1.87;;;;;;;27.17;39.44;101311.41;3597032;77;22117;-74
2022/07/18 11:03:44;;;;;;;1.98;1.55;;;;;;;25.91;40.55;101302.63;3597331;76;20962;-73
2022/07/18 11:08:37;;;;;;;1.75;1.42;;;;;;;26.81;40.64;101290.67;3585210;77;20906;-74
2022/07/18 11:13:40;;;;;;;2.52;1.55;;;;;;;26.40;40.62;101294.57;3554621;76;20974;-74
2022/07/18 11:18:35;;;;;;;2.72;1.85;;;;;;;26.96;41.14;101279.84;3590752;77;22275;-74
2022/07/18 11:23:28;;;;;;;2.13;1.60;;;;;;;27.08;41.32;101283.77;3591973;77;21728;-79
2022/07/18 11:28:22;;;;;;;3.35;1.87;;;;;;;27.58;41.33;101282.05;3565749;78;21057;-77
2022/07/18 11:33:24;;;;;;;2.22;1.50;;;;;;;26.91;41.02;101277.36;3592246;77;20947;-74
2022/07/18 11:38:17;;;;;;;2.33;1.40;;;;;;;26.18;41.32;101276.73;3500217;79;20928;-74
2022/07/18 11:43:09;;;;;;;3.50;1.57;;;;;;;25.69;42.42;101290.12;3546595;79;20967;-74
2022/07/18 11:48:01;;;;;;;1.60;1.50;;;;;;;25.07;42.20;101279.44;3590501;79;21871;-74
2022/07/18 11:52:58;;;;;;;3.42;1.62;;;;;;;24.51;43.01;101266.23;3519642;80;20959;-74
2022/07/18 11:57:50;;;;;;;3.95;1.92;;;;;;;24.01;43.98;101276.67;3535297;79;21006;-74
2022/07/18 12:03:17;;;;;;;5.53;2.22;;;;;;;23.84;44.84;101276.72;3508597;79;20961;-73
2022/07/18 12:08:33;;;;;;;3.25;1.60;;;;;;;23.85;45.33;101265.16;3526250;79;20986;-75
2022/07/18 12:13:26;;;;;;;2.30;1.72;;;;;;;23.73;45.18;101262.41;3509118;79;20984;-76
2022/07/18 12:18:28;;;;;;;1.52;1.40;;;;;;;23.62;45.68;101256.98;3481172;79;22217;-76
2022/07/18 12:23:26;;;;;;;1.60;1.50;;;;;;;23.89;45.83;101256.18;3539664;79;20957;-75
2022/07/18 12:28:21;;;;;;;3.45;1.35;;;;;;;24.52;45.57;101250.68;3540485;79;20967;-75
2022/07/18 12:33:14;;;;;;;2.70;1.80;;;;;;;25.56;45.00;101240.92;3532562;79;21437;-75
2022/07/18 12:38:16;;;;;;;2.77;1.47;;;;;;;26.06;44.81;101239.47;3575436;77;21495;-76
2022/07/18 12:43:12;;;;;;;4.03;1.92;;;;;;;25.62;43.39;101238.02;3590310;77;21459;-76
2022/07/18 12:48:07;;;;;;;2.12;1.50;;;;;;;25.48;44.28;101235.86;3551654;79;21492;-76
2022/07/18 12:52:59;;;;;;;2.83;1.50;;;;;;;25.64;43.52;101227.31;3563231;78;21530;-76
2022/07/18 12:57:51;;;;;;;2.55;1.65;;;;;;;25.46;43.81;101232.39;3627537;77;20950;-76
2022/07/18 13:02:45;;;;;;;2.92;1.60;;;;;;;25.18;44.04;101228.98;3509056;77;21500;-75
2022/07/18 13:07:37;;;;;;;5.55;1.95;;;;;;;24.84;44.12;101231.48;3610866;78;21004;-75
2022/07/18 13:12:29;;;;;;;2.42;1.52;;;;;;;24.61;44.59;101223.86;3613223;77;20949;-74
2022/07/18 13:17:22;;;;;;;2.37;1.77;;;;;;;24.59;45.11;101216.83;3533245;77;20984;-75
2022/07/18 13:22:14;;;;;;;4.60;1.82;;;;;;;25.16;45.12;101213.06;3606721;77;20961;-76
2022/07/18 13:27:08;;;;;;;3.47;1.92;;;;;;;25.54;44.51;101215.27;3586483;77;21556;-76
2022/07/18 13:32:02;;;;;;;4.58;1.77;;;;;;;26.27;42.91;101200.02;3595490;77;21389;-75
2022/07/18 13:36:55;;;;;;;2.58;1.92;;;;;;;26.03;42.80;101205.42;3546845;77;20955;-75
2022/07/18 13:41:48;;;;;;;2.67;1.50;;;;;;;25.67;43.16;101205.44;3506227;79;20903;-76
2022/07/18 13:46:42;;;;;;;2.98;1.80;;;;;;;26.36;42.95;101204.97;3421399;81;21065;-75
2022/07/18 13:51:36;;;;;;;2.17;1.50;;;;;;;26.51;42.67;101196.81;3546277;79;21636;-76
2022/07/18 13:56:29;;;;;;;3.83;1.67;;;;;;;26.13;42.70;101201.47;3455525;80;21473;-76
2022/07/18 14:01:21;;;;;;;3.22;1.42;;;;;;;26.78;43.26;101191.66;3481530;79;21009;-76
2022/07/18 14:06:13;;;;;;;1.82;1.40;;;;;;;27.12;41.67;101191.98;3502808;79;20988;-76
2022/07/18 14:11:07;;;;;;;2.15;1.40;;;;;;;26.61;42.38;101187.06;3528013;78;20868;-75
2022/07/18 14:15:59;;;;;;;4.28;1.75;;;;;;;26.49;42.41;101187.55;3584543;79;21031;-76
2022/07/18 14:20:51;;;;;;;4.95;1.40;;;;;;;26.31;42.89;101180.30;3536668;79;20950;-74
2022/07/18 14:25:43;;;;;;;1.92;1.65;;;;;;;27.00;42.90;101179.56;3544339;79;21639;-77
2022/07/18 14:30:35;;;;;;;4.17;1.57;;;;;;;27.55;41.21;101174.02;3502386;79;21000;-76
2022/07/18 14:35:28;;;;;;;3.33;1.47;;;;;;;26.62;41.36;101167.44;3401984;80;20964;-76
2022/07/18 14:40:20;;;;;;;2.10;1.50;;;;;;;25.98;41.85;101173.63;3507251;78;20970;-76
2022/07/18 14:45:12;;;;;;;2.95;1.40;;;;;;;25.86;42.52;101172.30;3574790;78;21557;-76
2022/07/18 14:50:07;;;;;;;1.52;1.10;;;;;;;26.38;42.75;101163.12;3604405;78;20895;-76
2022/07/18 14:54:59;;;;;;;2.75;1.40;;;;;;;26.86;41.29;101165.97;3574707;78;20976;-76
2022/07/18 14:59:52;;;;;;;1.62;1.52;;;;;;;27.60;41.27;101154.64;3522058;78;20989;-76
2022/07/18 15:04:44;;;;;;;1.42;1.30;;;;;;;27.88;39.71;101151.97;3594598;77;21211;-79
2022/07/18 15:09:36;;;;;;;2.60;1.75;;;;;;;28.29;38.50;101151.75;3577741;78;20936;-77
2022/07/18 15:14:28;;;;;;;2.72;1.90;;;;;;;27.91;38.11;101164.73;3551760;77;20934;-77
2022/07/18 15:19:21;;;;;;;1.32;1.22;;;;;;;27.41;39.02;101155.11;3624458;78;21512;-77
2022/07/18 15:24:13;;;;;;;2.47;1.40;;;;;;;27.76;38.40;101160.13;3579495;78;20922;-77
2022/07/18 15:29:06;;;;;;;3.33;1.77;;;;;;;27.04;38.31;101157.61;3577258;78;22074;-77
2022/07/18 15:33:59;;;;;;;2.10;1.90;;;;;;;26.39;39.30;101156.87;3605747;78;21065;-77
2022/07/18 15:38:51;;;;;;;1.85;1.45;;;;;;;26.16;39.08;101161.34;3507140;77;20949;-77
2022/07/18 15:43:43;;;;;;;2.30;1.70;;;;;;;26.20;39.05;101163.42;3593308;77;20879;-75
2022/07/18 15:48:35;;;;;;;3.83;1.85;;;;;;;26.48;39.33;101161.80;3576299;77;20990;-75
2022/07/18 15:53:27;;;;;;;1.80;1.40;;;;;;;26.11;39.42;101152.67;3557600;77;22440;-74
2022/07/18 15:58:19;;;;;;;1.70;1.60;;;;;;;25.71;39.04;101152.92;3535938;77;20939;-75
2022/07/18 16:03:11;;;;;;;2.98;1.95;;;;;;;25.45;39.58;101149.49;3600086;77;20966;-74
2022/07/18 16:08:03;;;;;;;1.60;1.37;;;;;;;25.92;40.06;101143.69;3613918;77;20989;-75
2022/07/18 16:12:56;;;;;;;3.02;1.77;;;;;;;25.95;39.75;101139.14;3616064;77;20918;-75
2022/07/18 16:17:48;;;;;;;2.15;1.62;;;;;;;26.06;39.78;101136.89;3624765;77;20969;-74
2022/07/18 16:22:44;;;;;;;1.82;1.65;;;;;;;25.84;39.88;101136.88;3625247;77;21487;-75
2022/07/18 16:27:37;;;;;;;2.47;2.27;;;;;;;25.64;40.50;101133.66;3574238;77;21245;-74
2022/07/18 16:32:29;;;;;;;6.83;1.85;;;;;;;25.55;40.63;101133.16;3552256;77;21227;-74
2022/07/18 16:37:21;;;;;;;2.75;1.77;;;;;;;25.60;41.00;101127.20;3564433;78;20970;-74
2022/07/18 16:42:13;;;;;;;2.50;1.65;;;;;;;25.86;40.62;101125.69;3566123;77;21398;-74
2022/07/18 16:47:07;;;;;;;4.22;1.95;;;;;;;25.69;39.92;101118.84;3623819;77;20966;-74
2022/07/18 16:52:03;;;;;;;4.00;1.70;;;;;;;25.44;40.28;101126.45;3535463;77;20878;-74
2022/07/18 16:56:56;;;;;;;3.00;1.92;;;;;;;25.12;40.26;101125.84;3479467;78;20995;-74
2022/07/18 17:01:49;;;;;;;3.80;3.50;;;;;;;25.04;40.18;101129.27;3460732;79;20995;-74
2022/07/18 17:06:42;;;;;;;3.00;2.67;;;;;;;25.03;40.33;101124.00;3479168;80;21436;-77
2022/07/18 17:11:36;;;;;;;3.20;1.70;;;;;;;25.21;40.48;101117.12;3514600;79;21210;-77
2022/07/18 17:16:29;;;;;;;1.87;1.65;;;;;;;25.11;40.38;101116.14;3435258;81;20912;-76
2022/07/18 17:21:22;;;;;;;3.70;2.12;;;;;;;24.96;40.58;101124.67;3444329;81;21445;-77
2022/07/18 17:26:15;;;;;;;1.57;1.47;;;;;;;24.79;40.51;101121.75;3473855;78;20966;-77
2022/07/18 17:31:08;;;;;;;2.40;2.10;;;;;;;24.76;40.60;101123.22;3480417;78;21555;-77
2022/07/18 17:36:03;;;;;;;4.42;2.10;;;;;;;24.78;40.76;101118.70;3475899;79;20954;-77
2022/07/18 17:40:55;;;;;;;3.42;2.00;;;;;;;24.68;41.41;101111.50;3467749;79;20942;-77
2022/07/18 17:45:50;;;;;;;2.08;1.85;;;;;;;24.41;41.56;101117.30;3487464;80;20981;-77
2022/07/18 17:50:43;;;;;;;5.70;2.50;;;;;;;24.19;42.01;101116.70;3523306;78;20936;-77
2022/07/18 17:55:36;;;;;;;2.12;2.00;;;;;;;23.96;42.15;101113.00;3448757;79;22495;-77
2022/07/18 18:00:28;;;;;;;3.45;1.57;;;;;;;23.79;42.44;101110.02;3497439;79;20943;-77
2022/07/18 18:05:21;;;;;;;3.20;1.67;;;;;;;23.68;42.33;101110.80;3545290;79;20975;-77
2022/07/18 18:10:13;;;;;;;3.52;1.90;;;;;;;23.54;42.96;101109.45;3532876;79;22183;-77
2022/07/18 18:15:07;;;;;;;2.40;2.05;;;;;;;23.49;42.73;101114.02;3475522;79;21456;-77
2022/07/18 18:20:00;;;;;;;3.12;2.27;;;;;;;23.45;42.82;101124.33;3461212;79;22192;-77
2022/07/18 18:24:52;;;;;;;2.37;1.87;;;;;;;23.33;42.34;101119.39;3518684;79;20939;-77
2022/07/18 18:29:46;;;;;;;3.92;1.90;;;;;;;23.20;42.52;101123.73;3422824;81;20987;-77
2022/07/18 18:34:38;;;;;;;2.30;1.90;;;;;;;23.08;43.40;101122.75;3524429;78;20969;-77
2022/07/18 18:39:40;;;;;;;2.05;1.70;;;;;;;22.91;43.75;101122.31;3544515;78;21584;-76
2022/07/18 18:44:33;;;;;;;6.05;2.58;;;;;;;22.70;44.22;101128.64;3468770;80;21537;-77
2022/07/18 18:49:25;;;;;;;2.72;1.85;;;;;;;22.48;45.15;101124.80;3512150;79;20970;-76
2022/07/18 18:54:20;;;;;;;6.03;2.40;;;;;;;22.22;45.77;101128.97;3506211;80;20929;-77
2022/07/18 18:59:14;;;;;;;3.85;2.05;;;;;;;21.98;46.42;101120.72;3443744;80;20943;-76
2022/07/18 19:04:06;;;;;;;2.70;2.08;;;;;;;21.74;46.36;101122.62;3458679;81;21057;-76
2022/07/18 19:08:58;;;;;;;3.27;1.85;;;;;;;21.55;47.21;101132.27;3488812;80;20940;-76
2022/07/18 19:13:51;;;;;;;3.37;2.05;;;;;;;21.40;47.73;101129.95;3530529;79;20900;-76
2022/07/18 19:18:46;;;;;;;2.17;1.70;;;;;;;21.21;47.37;101135.63;3486715;80;20927;-76
2022/07/18 19:23:38;;;;;;;2.92;2.08;;;;;;;21.11;48.26;101130.96;3474057;80;21026;-76
2022/07/18 19:28:32;;;;;;;5.22;2.60;;;;;;;21.04;48.77;101132.45;3528330;79;20975;-75
2022/07/18 19:33:24;;;;;;;3.67;2.15;;;;;;;20.92;48.47;101131.77;3492881;79;22462;-75
2022/07/18 19:38:17;;;;;;;3.12;2.50;;;;;;;20.81;48.82;101133.75;3527934;79;20956;-75
2022/07/18 19:43:09;;;;;;;4.17;2.33;;;;;;;20.65;49.06;101129.66;3422511;80;21049;-75
2022/07/18 19:48:03;;;;;;;3.22;2.20;;;;;;;20.55;49.60;101124.52;3515929;79;20967;-75
2022/07/18 19:52:55;;;;;;;3.12;2.10;;;;;;;20.45;50.21;101123.39;3522092;79;20931;-75
2022/07/18 19:57:47;;;;;;;4.05;1.82;;;;;;;20.37;50.27;101119.53;3486141;79;21006;-75
2022/07/18 20:02:40;;;;;;;2.50;2.30;;;;;;;20.27;50.29;101111.37;3463577;80;20975;-75
2022/07/18 20:07:34;;;;;;;2.92;2.52;;;;;;;20.19;50.48;101112.38;3472089;80;20969;-75
2022/07/18 20:12:26;;;;;;;2.98;2.60;;;;;;;20.16;50.87;101111.55;3535100;79;20967;-75
2022/07/18 20:17:18;;;;;;;4.87;2.35;;;;;;;20.12;51.48;101110.73;3474210;79;20995;-75
2022/07/18 20:22:10;;;;;;;4.37;2.42;;;;;;;20.10;51.56;101107.25;3511596;79;21247;-75
2022/07/18 20:27:02;;;;;;;5.67;2.52;;;;;;;20.00;51.67;101110.92;3423432;80;22216;-75
2022/07/18 20:31:54;;;;;;;2.72;2.05;;;;;;;20.00;52.30;101109.61;3472713;80;21466;-75
2022/07/18 20:36:47;;;;;;;3.83;2.67;;;;;;;19.90;52.94;101110.63;3459595;79;20975;-75
2022/07/18 20:41:44;;;;;;;5.42;2.75;;;;;;;19.83;53.05;101114.27;3457056;78;20962;-76
2022/07/18 20:46:39;;;;;;;3.75;2.47;;;;;;;19.77;53.33;101114.77;3475950;80;21685;-76
2022/07/18 20:51:31;;;;;;;4.72;2.67;;;;;;;19.68;53.48;101109.61;3496004;78;20917;-76
2022/07/18 20:56:23;;;;;;;2.80;2.40;;;;;;;19.58;54.07;101111.94;3549207;78;20906;-75
2022/07/18 21:01:15;;;;;;;3.35;2.50;;;;;;;19.46;54.32;101114.74;3554335;78;21089;-75
2022/07/18 21:06:08;;;;;;;6.25;3.30;;;;;;;19.42;55.11;101108.22;3574436;78;20953;-76
2022/07/18 21:11:00;;;;;;;4.00;2.40;;;;;;;19.37;55.42;101110.46;3504583;79;21482;-76
2022/07/18 21:15:52;;;;;;;6.65;3.52;;;;;;;19.33;55.82;101108.31;3553098;79;20957;-76
2022/07/18 21:20:44;;;;;;;4.33;2.55;;;;;;;19.28;56.21;101111.48;3556458;78;21334;-76
2022/07/18 21:25:37;;;;;;;2.87;2.60;;;;;;;19.27;56.91;101109.72;3523210;78;20921;-76
2022/07/18 21:30:29;;;;;;;4.95;2.40;;;;;;;19.24;57.05;101112.39;3542687;78;20958;-76
2022/07/18 21:35:25;;;;;;;3.22;2.92;;;;;;;19.24;57.01;101112.39;3528025;78;22026;-76
2022/07/18 21:40:17;;;;;;;6.97;3.12;;;;;;;19.22;57.44;101110.22;3501892;77;20935;-76
2022/07/18 21:45:11;;;;;;;4.87;2.70;;;;;;;19.16;58.06;101106.36;3502770;80;21479;-76
2022/07/18 21:50:06;;;;;;;6.37;3.17;;;;;;;19.16;58.65;101111.63;3481914;80;21515;-76
2022/07/18 21:54:58;;;;;;;3.45;3.15;;;;;;;19.18;58.56;101117.30;3448016;81;20994;-76
2022/07/18 21:59:52;;;;;;;3.00;2.45;;;;;;;19.15;58.15;101112.51;3465458;79;22533;-76
2022/07/18 22:04:45;;;;;;;3.30;2.70;;;;;;;19.15;58.13;101105.92;3498332;80;20969;-76
2022/07/18 22:09:37;;;;;;;3.72;2.85;;;;;;;19.13;58.37;101098.48;3435339;79;21472;-76
2022/07/18 22:14:30;;;;;;;4.97;3.20;;;;;;;19.09;58.54;101098.11;3508747;80;20974;-76
2022/07/18 22:19:22;;;;;;;2.98;2.72;;;;;;;19.05;59.28;101096.81;3506957;79;21109;-76
2022/07/18 22:24:14;;;;;;;5.17;3.12;;;;;;;19.01;59.23;101097.75;3472156;80;21005;-76
2022/07/18 22:29:06;;;;;;;5.30;3.25;;;;;;;18.96;59.40;101100.02;3471155;79;20992;-76
2022/07/18 22:33:59;;;;;;;3.35;2.98;;;;;;;18.97;59.45;101106.56;3484748;79;20956;-76
2022/07/18 22:38:52;;;;;;;5.08;2.95;;;;;;;18.96;59.85;101096.93;3511596;78;21421;-76
2022/07/18 22:43:44;;;;;;;4.60;3.02;;;;;;;18.93;59.32;101091.69;3526771;77;20966;-76
2022/07/18 22:48:36;;;;;;;4.28;3.10;;;;;;;18.96;60.08;101093.44;3515551;77;21651;-78